Share

Mud Butte, SD (57758)

Black Hills-Ice (KSPF) Elev 3898 ft | 44.48 °N, 103.78 °W | Change Station

Current weather conditions updated 23 minutes ago

Overcast
Overcast
27 °F
Feels Like 27 °F
N
0
Wind Variable Wind from North
Sunrise 6:02 AM
Sunset 7:39 PM
Moon Waning Gibbous

Today is forecast to be Much Warmer than yesterday.

Pressure 30.09 in
Visibility 10.0 miles
Clouds Overcast 8000 ft
Dew Point 25 °F
Humidity 93%
Rainfall 0.00 in
Snow Depth Not available.
UV 0 out of 16
Pollen 7.90 out of 12
Air Quality Not available.
Flu Activity Sporadic
METAR KSPF 171055Z AUTO 00000KT 10SM OVC080 M03/M04 A3009 RMK AO2

More Conditions Fewer Conditions

Pressure 30.09 in
Visibility 10.0 miles
Clouds Overcast 8000 ft
Dew Point 25 °F
Humidity 93%
Rainfall 0.00 in
Snow Depth Not available.
UV 0 out of 16
Pollen 7.90 out of 12
Air Quality Not available.
Flu Activity Sporadic
METAR KSPF 171055Z AUTO 00000KT 10SM OVC080 M03/M04 A3009 RMK AO2

More Conditions Fewer Conditions

10-Day Forecast

Almanac

Astronomy

Apr. 17, 2014 Rise Set
Actual Time 6:02 AM MDT 7:39 PM MDT
Civil Twilight 5:32 AM MDT 8:10 PM MDT
Nautical Twilight 4:54 AM MDT 8:48 PM MDT
Astronomical Twilight 4:14 AM MDT 9:28 PM MDT
Moon 10:33 PM MDT 7:31 AM MDT
Length of Visible Light 14h 38m
Length of Day
13h 36m
Tomorrow will be 2m 59s longer.
Waning Gibbous, 95% of the Moon is Illuminated
Today
Waning Gibbous
Apr 22
Last Quarter
Apr 29
New
May 6
First Quarter
May 14
Full

Today's Extremes

State Highs State Lows

Community

  • sunset from izmir, narlıdere
    sunset from izmir, narlıdere
  • Sunset over the Bay
    Sunset over the Bay
  • Sunrise Serenade
    Sunrise Serenade
  • symphony in blue....
    symphony in blue....
  • Dawn Surprise
    Dawn Surprise

WunderPhotos

Upload Photos

1,701,911 photos uploaded!

Nearby

Snow Depth

Station Depth Elevation
North Rapid Creek 24 in 6130 ft
Blind Park 26 in 6890 ft

Coastal Water Temperatures

Place Temperature
No Stations Reporting

Earthquake Activity

City Distance Mag. Time & Date
No recent earthquake activity has been reported nearby.
Minimum magnitude displayed is 2.5.

Nearby Weather Stations

There are no personal weather stations in this area.

What do you think?

We're not finished. Please let us know what you like, what you don't like, and what you are still missing.